createdAt,value
2022-10-08T00:01:24.919Z,12.50
2022-10-08T00:03:54.205Z,12.50
2022-10-08T00:06:28.839Z,12.50
2022-10-08T00:09:08.525Z,12.60
2022-10-08T00:11:40.715Z,12.50
2022-10-08T00:14:09.342Z,12.50
2022-10-08T00:16:41.417Z,12.50
2022-10-08T00:19:14.440Z,12.50
2022-10-08T00:21:44.338Z,12.50
2022-10-08T00:24:16.248Z,12.50
2022-10-08T00:26:44.704Z,12.40
2022-10-08T00:29:15.312Z,12.40
2022-10-08T00:31:45.585Z,12.40
2022-10-08T00:34:22.279Z,12.40
2022-10-08T00:36:54.873Z,12.40
2022-10-08T00:39:24.662Z,12.50
2022-10-08T00:41:55.961Z,12.50
2022-10-08T00:44:51.630Z,12.60
2022-10-08T00:47:31.450Z,12.60
2022-10-08T00:50:12.243Z,12.60
2022-10-08T00:52:48.581Z,12.60
2022-10-08T00:55:20.134Z,12.70
2022-10-08T00:57:47.403Z,12.60
2022-10-08T01:00:19.334Z,12.60
2022-10-08T01:02:46.918Z,12.60
2022-10-08T01:05:19.742Z,12.60
2022-10-08T01:08:11.037Z,12.60
2022-10-08T01:10:52.674Z,12.60
2022-10-08T01:14:12.310Z,12.70
2022-10-08T01:17:13.888Z,12.60
2022-10-08T01:20:30.349Z,12.60
2022-10-08T01:23:26.302Z,12.60
2022-10-08T01:26:36.946Z,12.60
2022-10-08T01:29:16.551Z,12.50
2022-10-08T01:32:06.646Z,12.50
2022-10-08T01:34:46.050Z,12.60
2022-10-08T01:37:23.232Z,12.80
2022-10-08T01:39:54.288Z,13.00
2022-10-08T01:42:26.137Z,13.20
2022-10-08T01:45:01.912Z,13.30
2022-10-08T01:47:31.151Z,13.40
2022-10-08T01:50:18.596Z,13.50
2022-10-08T01:52:54.636Z,13.60
2022-10-08T01:55:46.439Z,13.70
2022-10-08T01:58:29.043Z,13.70
2022-10-08T02:01:02.767Z,13.70
2022-10-08T02:03:29.840Z,13.60
2022-10-08T02:05:59.807Z,13.50
2022-10-08T02:08:27.765Z,13.40
2022-10-08T02:10:58.175Z,13.30
2022-10-08T02:13:25.504Z,13.30
2022-10-08T02:15:58.484Z,13.10
2022-10-08T02:18:52.486Z,13.10
2022-10-08T02:21:28.022Z,13.00
2022-10-08T02:24:14.990Z,13.00
2022-10-08T02:26:48.943Z,13.00
2022-10-08T02:29:29.257Z,13.00
2022-10-08T02:32:20.473Z,12.90
2022-10-08T02:34:56.623Z,12.90
2022-10-08T02:37:42.639Z,12.90
2022-10-08T02:40:14.424Z,13.00
2022-10-08T02:42:49.404Z,13.00
2022-10-08T02:45:27.150Z,13.00
2022-10-08T02:48:05.594Z,13.00
2022-10-08T02:50:36.099Z,13.00
2022-10-08T02:53:03.696Z,12.90
2022-10-08T02:55:41.841Z,12.90
2022-10-08T02:58:10.992Z,12.80
2022-10-08T03:00:53.162Z,12.70
2022-10-08T03:03:33.740Z,12.70
2022-10-08T03:06:05.485Z,12.70
2022-10-08T03:08:35.683Z,12.70
2022-10-08T03:11:04.150Z,12.70
2022-10-08T03:13:39.736Z,12.60
2022-10-08T03:16:12.216Z,12.60
2022-10-08T03:18:41.300Z,12.60
2022-10-08T03:21:13.176Z,12.60
2022-10-08T03:23:40.423Z,12.60
2022-10-08T03:26:07.799Z,12.60
2022-10-08T03:28:34.940Z,12.60
2022-10-08T03:31:06.958Z,12.60
2022-10-08T03:33:34.668Z,12.50
2022-10-08T03:36:01.925Z,12.60
2022-10-08T03:38:29.059Z,12.60
2022-10-08T03:40:58.879Z,12.60
2022-10-08T03:43:34.347Z,12.60
2022-10-08T03:46:02.236Z,12.60
2022-10-08T03:48:30.140Z,12.60
2022-10-08T03:51:04.623Z,12.60
2022-10-08T03:53:37.045Z,12.60
2022-10-08T03:56:16.205Z,12.50
2022-10-08T03:58:43.888Z,12.50
2022-10-08T04:01:17.651Z,12.40
2022-10-08T04:03:45.509Z,12.30
2022-10-08T04:06:16.468Z,12.20
2022-10-08T04:08:44.212Z,12.00
2022-10-08T04:11:14.780Z,11.90
2022-10-08T04:13:43.223Z,11.60
2022-10-08T04:16:18.926Z,11.50
2022-10-08T04:18:47.844Z,11.30
2022-10-08T04:21:17.709Z,11.30
2022-10-08T04:23:46.123Z,11.10
2022-10-08T04:26:15.065Z,11.00
2022-10-08T04:28:48.273Z,10.90
2022-10-08T04:31:19.344Z,10.80
2022-10-08T04:33:47.881Z,10.70
2022-10-08T04:36:22.595Z,10.60
2022-10-08T04:38:50.150Z,10.40
2022-10-08T04:41:23.423Z,10.40
2022-10-08T04:43:51.517Z,10.30
2022-10-08T04:46:22.045Z,10.20
2022-10-08T04:48:54.924Z,10.10
2022-10-08T04:51:25.279Z,10.10
2022-10-08T04:53:53.068Z,10.00
2022-10-08T04:56:24.014Z,9.90
2022-10-08T04:58:51.862Z,9.90
2022-10-08T05:01:20.969Z,9.90
2022-10-08T05:03:51.355Z,9.80
2022-10-08T05:06:23.458Z,9.80
2022-10-08T05:08:51.936Z,9.70
2022-10-08T05:11:19.830Z,9.70
2022-10-08T05:13:52.530Z,9.70
2022-10-08T05:16:19.999Z,9.60
2022-10-08T05:18:48.403Z,9.50
2022-10-08T05:21:19.404Z,9.50
2022-10-08T05:23:46.898Z,9.40
2022-10-08T05:26:31.840Z,9.30
2022-10-08T05:29:10.904Z,9.30
2022-10-08T05:31:38.660Z,9.20
2022-10-08T05:34:05.906Z,9.20
2022-10-08T05:36:34.643Z,9.20
2022-10-08T05:39:05.826Z,9.20
2022-10-08T05:41:38.292Z,9.20
2022-10-08T05:44:08.726Z,9.10
2022-10-08T05:46:37.686Z,9.10
2022-10-08T05:49:08.577Z,9.10
2022-10-08T05:51:36.375Z,9.10
2022-10-08T05:54:03.615Z,9.00
2022-10-08T05:56:31.826Z,9.00
2022-10-08T05:58:59.177Z,9.00
2022-10-08T06:01:32.296Z,9.00
2022-10-08T06:04:09.080Z,8.90
2022-10-08T06:06:38.810Z,9.00
2022-10-08T06:09:07.610Z,8.90
2022-10-08T06:11:37.128Z,8.80
2022-10-08T06:14:07.272Z,8.80
2022-10-08T06:16:35.551Z,8.80
2022-10-08T06:19:03.770Z,8.80
2022-10-08T06:21:31.429Z,8.80
2022-10-08T06:24:01.270Z,8.80
2022-10-08T06:26:35.761Z,8.80
2022-10-08T06:29:05.898Z,8.90
2022-10-08T06:31:34.956Z,9.00
2022-10-08T06:34:04.523Z,8.90
2022-10-08T06:36:33.831Z,9.10
2022-10-08T06:39:06.383Z,9.20
2022-10-08T06:41:37.126Z,9.20
2022-10-08T06:44:06.781Z,9.20
2022-10-08T06:46:35.113Z,9.20
2022-10-08T06:49:03.690Z,9.20
2022-10-08T06:51:30.918Z,9.20
2022-10-08T06:54:03.063Z,9.30
2022-10-08T06:56:33.883Z,9.30
2022-10-08T06:59:00.903Z,9.30
2022-10-08T07:01:33.180Z,9.40
2022-10-08T07:04:02.597Z,9.40
2022-10-08T07:06:30.043Z,9.50
2022-10-08T07:09:00.342Z,9.50
2022-10-08T07:11:28.583Z,9.60
2022-10-08T07:13:56.354Z,9.60
2022-10-08T07:16:26.332Z,9.70
2022-10-08T07:18:56.133Z,9.70
2022-10-08T07:21:23.396Z,9.80
2022-10-08T07:23:50.983Z,9.80
2022-10-08T07:26:24.409Z,9.90
2022-10-08T07:29:04.922Z,10.00
2022-10-08T07:31:35.433Z,10.10
2022-10-08T07:34:05.947Z,10.10
2022-10-08T07:36:33.326Z,10.20
2022-10-08T07:39:10.915Z,10.30
2022-10-08T07:41:38.107Z,10.40
2022-10-08T07:44:06.403Z,10.50
2022-10-08T07:46:36.748Z,10.50
2022-10-08T07:49:05.135Z,10.60
2022-10-08T07:51:34.802Z,10.60
2022-10-08T07:54:05.538Z,10.70
2022-10-08T07:56:34.738Z,10.80
2022-10-08T07:59:02.934Z,11.00
2022-10-08T08:01:31.385Z,11.20
2022-10-08T08:04:02.131Z,11.40
2022-10-08T08:06:31.888Z,11.60
2022-10-08T08:09:01.635Z,11.90
2022-10-08T08:11:29.367Z,12.20
2022-10-08T08:13:56.495Z,12.40
2022-10-08T08:16:26.772Z,12.70
2022-10-08T08:18:58.347Z,12.90
2022-10-08T08:21:45.595Z,13.10
2022-10-08T08:24:15.291Z,13.20
2022-10-08T08:26:43.631Z,13.30
2022-10-08T08:29:15.083Z,13.40
2022-10-08T08:31:46.650Z,13.50
2022-10-08T08:34:20.984Z,13.50
2022-10-08T08:36:50.594Z,13.40
2022-10-08T08:39:23.977Z,13.30
2022-10-08T08:42:05.487Z,13.20
2022-10-08T08:44:42.126Z,13.20
2022-10-08T08:47:27.072Z,13.20
2022-10-08T08:50:09.030Z,13.20
2022-10-08T08:52:42.665Z,13.20
2022-10-08T08:55:19.218Z,13.40
2022-10-08T08:57:52.103Z,13.50
2022-10-08T09:00:29.639Z,13.70
2022-10-08T09:03:02.276Z,13.90
2022-10-08T09:05:34.261Z,13.80
2022-10-08T09:08:23.379Z,13.90
2022-10-08T09:10:58.695Z,13.80
2022-10-08T09:13:36.742Z,13.90
2022-10-08T09:16:04.339Z,14.00
2022-10-08T09:18:32.554Z,14.20
2022-10-08T09:20:59.558Z,14.40
2022-10-08T09:23:27.377Z,14.60
2022-10-08T09:26:08.859Z,14.90
2022-10-08T09:28:48.163Z,15.10
2022-10-08T09:31:45.805Z,15.10
2022-10-08T09:34:18.655Z,15.30
2022-10-08T09:37:06.344Z,15.50
2022-10-08T09:39:37.467Z,15.60
2022-10-08T09:42:14.787Z,15.90
2022-10-08T09:45:03.951Z,15.90
2022-10-08T09:47:31.112Z,15.80
2022-10-08T09:50:21.535Z,16.00
2022-10-08T09:52:53.660Z,16.00
2022-10-08T09:55:29.226Z,16.10
2022-10-08T09:58:04.193Z,16.00
2022-10-08T10:00:39.654Z,16.00
2022-10-08T10:03:19.042Z,15.80
2022-10-08T10:05:53.370Z,15.50
2022-10-08T10:08:42.090Z,15.30
2022-10-08T10:11:18.090Z,15.30
2022-10-08T10:13:48.116Z,15.20
2022-10-08T10:16:34.341Z,15.20
2022-10-08T10:19:13.892Z,15.10
2022-10-08T10:22:14.627Z,15.00
2022-10-08T10:24:56.237Z,15.00
2022-10-08T10:27:23.216Z,14.90
2022-10-08T10:30:17.759Z,14.90
2022-10-08T10:33:17.810Z,14.90
2022-10-08T10:36:01.284Z,15.00
2022-10-08T10:38:30.351Z,15.00
2022-10-08T10:41:30.884Z,15.00
2022-10-08T10:44:12.592Z,15.00
2022-10-08T10:46:54.071Z,15.10
2022-10-08T10:49:35.547Z,15.10
2022-10-08T10:52:33.611Z,15.30
2022-10-08T10:55:09.267Z,15.30
2022-10-08T10:58:04.033Z,15.40
2022-10-08T11:00:43.751Z,15.50
2022-10-08T11:03:35.015Z,15.50
2022-10-08T11:06:36.369Z,15.50
2022-10-08T11:09:24.467Z,15.40
2022-10-08T11:12:31.335Z,15.20
2022-10-08T11:15:19.335Z,15.00
2022-10-08T11:18:18.766Z,15.00
2022-10-08T11:21:16.791Z,15.00
2022-10-08T11:24:21.533Z,15.10
2022-10-08T11:27:03.466Z,15.00
2022-10-08T11:30:14.304Z,14.90
2022-10-08T11:32:51.096Z,14.90
2022-10-08T11:35:36.898Z,15.00
2022-10-08T11:38:19.108Z,15.00
2022-10-08T11:41:11.251Z,15.40
2022-10-08T11:43:59.070Z,15.80
2022-10-08T11:46:33.093Z,16.10
2022-10-08T11:49:24.155Z,15.80
2022-10-08T11:51:54.642Z,15.70
2022-10-08T11:54:38.658Z,15.60
2022-10-08T11:58:06.807Z,15.50
2022-10-08T12:00:44.609Z,15.60
2022-10-08T12:03:41.195Z,15.50
2022-10-08T12:06:26.576Z,15.40
2022-10-08T12:09:01.010Z,15.20
2022-10-08T12:11:39.615Z,15.10
2022-10-08T12:14:12.873Z,15.10
2022-10-08T12:16:49.035Z,15.00
2022-10-08T12:19:37.324Z,15.00
2022-10-08T12:22:15.031Z,15.00
2022-10-08T12:24:49.940Z,15.10
2022-10-08T12:27:17.757Z,15.00
2022-10-08T12:29:57.018Z,15.10
2022-10-08T12:32:30.998Z,15.30
2022-10-08T12:34:59.912Z,15.30
2022-10-08T12:38:16.262Z,15.40
2022-10-08T12:41:18.511Z,15.60
2022-10-08T12:44:06.966Z,15.70
2022-10-08T12:46:55.825Z,16.20
2022-10-08T12:50:26.727Z,16.60
2022-10-08T12:52:54.019Z,17.00
2022-10-08T12:55:23.580Z,17.50
2022-10-08T12:57:52.487Z,17.00
2022-10-08T13:00:25.675Z,17.10
2022-10-08T13:03:06.353Z,16.70
2022-10-08T13:05:46.492Z,16.70
2022-10-08T13:08:42.631Z,16.80
2022-10-08T13:11:15.666Z,16.60
2022-10-08T13:13:45.990Z,16.80
2022-10-08T13:16:21.771Z,17.30
2022-10-08T13:18:57.509Z,17.30
2022-10-08T13:21:37.002Z,17.00
2022-10-08T13:24:04.191Z,17.00
2022-10-08T13:26:43.390Z,17.30
2022-10-08T13:29:22.703Z,17.50
2022-10-08T13:32:01.780Z,17.50
2022-10-08T13:34:37.872Z,17.50
2022-10-08T13:37:21.723Z,16.90
2022-10-08T13:40:00.471Z,16.60
2022-10-08T13:42:34.874Z,16.70
2022-10-08T13:45:05.040Z,16.50
2022-10-08T13:47:32.034Z,16.30
2022-10-08T13:50:02.136Z,15.90
2022-10-08T13:52:32.627Z,15.80
2022-10-08T13:55:07.714Z,15.80
2022-10-08T13:57:34.784Z,16.20
2022-10-08T14:00:01.842Z,16.50
2022-10-08T14:02:29.012Z,16.70
2022-10-08T14:04:56.043Z,16.80
2022-10-08T14:07:26.363Z,16.60
2022-10-08T14:09:56.328Z,16.70
2022-10-08T14:12:26.731Z,16.80
2022-10-08T14:14:54.170Z,17.00
2022-10-08T14:17:21.406Z,16.90
2022-10-08T14:19:49.467Z,17.00
2022-10-08T14:22:17.701Z,17.20
2022-10-08T14:24:44.825Z,17.50
2022-10-08T14:27:11.827Z,17.30
2022-10-08T14:29:38.819Z,16.90
2022-10-08T14:32:08.115Z,16.80
2022-10-08T14:34:35.779Z,16.90
2022-10-08T14:37:03.672Z,17.10
2022-10-08T14:39:31.611Z,16.90
2022-10-08T14:41:58.806Z,17.00
2022-10-08T14:44:25.907Z,16.90
2022-10-08T14:46:53.046Z,17.10
2022-10-08T14:49:21.402Z,17.10
2022-10-08T14:51:48.684Z,16.90
2022-10-08T14:54:15.960Z,16.50
2022-10-08T14:56:43.355Z,16.40
2022-10-08T14:59:11.536Z,16.30
2022-10-08T15:01:39.332Z,16.40
2022-10-08T15:04:07.770Z,16.50
2022-10-08T15:06:34.899Z,16.60
2022-10-08T15:09:02.198Z,16.60
2022-10-08T15:11:29.251Z,16.50
2022-10-08T15:13:56.362Z,16.60
2022-10-08T15:16:24.192Z,16.70
2022-10-08T15:18:51.624Z,16.60
2022-10-08T15:21:18.976Z,16.70
2022-10-08T15:23:46.111Z,16.80
2022-10-08T15:26:16.455Z,16.90
2022-10-08T15:28:46.181Z,16.50
2022-10-08T15:31:17.302Z,16.40
2022-10-08T15:33:47.977Z,16.20
2022-10-08T15:36:26.511Z,16.00
2022-10-08T15:39:03.736Z,15.60
2022-10-08T15:41:37.784Z,15.60
2022-10-08T15:44:10.089Z,15.40
2022-10-08T15:46:37.682Z,15.10
2022-10-08T15:49:05.092Z,15.00
2022-10-08T15:51:33.618Z,14.90
2022-10-08T15:54:01.561Z,14.70
2022-10-08T15:56:29.234Z,14.60
2022-10-08T15:58:58.987Z,14.40
2022-10-08T16:01:26.684Z,14.10
2022-10-08T16:03:55.092Z,14.00
2022-10-08T16:06:29.487Z,13.70
2022-10-08T16:08:58.026Z,13.50
2022-10-08T16:11:30.541Z,13.30
2022-10-08T16:14:08.587Z,13.00
2022-10-08T16:16:36.948Z,12.80
2022-10-08T16:19:11.626Z,12.70
2022-10-08T16:21:40.551Z,12.50
2022-10-08T16:24:07.778Z,12.30
2022-10-08T16:26:35.627Z,12.10
2022-10-08T16:29:07.678Z,12.00
2022-10-08T16:31:37.396Z,11.90
2022-10-08T16:34:14.897Z,11.70
2022-10-08T16:36:43.032Z,11.60
2022-10-08T16:39:13.506Z,11.50
2022-10-08T16:41:40.587Z,11.40
2022-10-08T16:44:13.165Z,11.20
2022-10-08T16:46:48.516Z,11.10
2022-10-08T16:49:27.163Z,11.10
2022-10-08T16:52:00.504Z,10.90
2022-10-08T16:54:28.946Z,10.80
2022-10-08T16:56:56.815Z,10.70
2022-10-08T16:59:26.812Z,10.60
2022-10-08T17:01:57.500Z,10.60
2022-10-08T17:04:27.023Z,10.50
2022-10-08T17:06:54.270Z,10.40
2022-10-08T17:09:21.335Z,10.40
2022-10-08T17:11:48.880Z,10.30
2022-10-08T17:14:16.132Z,10.10
2022-10-08T17:16:45.149Z,10.10
2022-10-08T17:19:13.281Z,10.00
2022-10-08T17:21:40.803Z,10.00
2022-10-08T17:24:10.127Z,9.90
2022-10-08T17:26:37.886Z,9.90
2022-10-08T17:29:08.858Z,9.90
2022-10-08T17:31:38.517Z,9.70
2022-10-08T17:34:06.608Z,9.60
2022-10-08T17:36:37.270Z,9.50
2022-10-08T17:39:08.558Z,9.50
2022-10-08T17:41:39.025Z,9.50
2022-10-08T17:44:09.033Z,9.40
2022-10-08T17:46:43.801Z,9.30
2022-10-08T17:49:12.034Z,9.30
2022-10-08T17:51:39.294Z,9.20
2022-10-08T17:54:11.288Z,9.20
2022-10-08T17:56:38.377Z,9.20
2022-10-08T17:59:05.544Z,9.10
2022-10-08T18:01:35.911Z,9.10
2022-10-08T18:04:10.246Z,9.10
2022-10-08T18:06:43.126Z,9.10
2022-10-08T18:09:18.547Z,9.00
2022-10-08T18:11:51.088Z,9.00
2022-10-08T18:14:19.865Z,9.00
2022-10-08T18:16:48.469Z,8.90
2022-10-08T18:19:16.677Z,8.90
2022-10-08T18:21:43.774Z,8.80
2022-10-08T18:24:11.258Z,8.70
2022-10-08T18:26:39.812Z,8.70
2022-10-08T18:29:12.758Z,8.60
2022-10-08T18:31:42.728Z,8.60
2022-10-08T18:34:17.958Z,8.50
2022-10-08T18:36:46.420Z,8.50
2022-10-08T18:39:21.594Z,8.50
2022-10-08T18:41:53.221Z,8.50
2022-10-08T18:44:24.187Z,8.50
2022-10-08T18:46:52.111Z,8.40
2022-10-08T18:49:29.112Z,8.40
2022-10-08T18:51:57.150Z,8.40
2022-10-08T18:54:24.448Z,8.30
2022-10-08T18:56:51.576Z,8.30
2022-10-08T18:59:19.071Z,8.30
2022-10-08T19:01:47.977Z,8.30
2022-10-08T19:04:21.475Z,8.20
2022-10-08T19:06:52.266Z,8.20
2022-10-08T19:09:20.753Z,8.10
2022-10-08T19:11:51.723Z,8.10
2022-10-08T19:14:21.856Z,8.00
2022-10-08T19:16:49.879Z,7.90
2022-10-08T19:19:23.022Z,8.00
2022-10-08T19:21:52.194Z,7.90
2022-10-08T19:24:25.071Z,7.90
2022-10-08T19:26:54.310Z,8.00
2022-10-08T19:29:25.460Z,8.00
2022-10-08T19:31:52.973Z,8.00
2022-10-08T19:34:24.957Z,8.10
2022-10-08T19:36:52.954Z,8.20
2022-10-08T19:39:23.746Z,8.20
2022-10-08T19:41:50.901Z,8.20
2022-10-08T19:44:18.982Z,8.20
2022-10-08T19:46:46.611Z,8.10
2022-10-08T19:49:14.833Z,8.00
2022-10-08T19:51:41.961Z,8.00
2022-10-08T19:54:09.064Z,8.00
2022-10-08T19:56:36.740Z,8.00
2022-10-08T19:59:04.783Z,7.90
2022-10-08T20:01:35.616Z,7.90
2022-10-08T20:04:05.254Z,7.80
2022-10-08T20:06:35.692Z,7.70
2022-10-08T20:09:04.519Z,7.60
2022-10-08T20:11:32.541Z,7.50
2022-10-08T20:14:00.850Z,7.40
2022-10-08T20:16:32.112Z,7.30
2022-10-08T20:19:04.952Z,7.40
2022-10-08T20:21:36.480Z,7.40
2022-10-08T20:24:04.753Z,7.30
2022-10-08T20:26:35.371Z,7.30
2022-10-08T20:29:16.250Z,7.30
2022-10-08T20:31:54.984Z,7.30
2022-10-08T20:34:31.782Z,7.40
2022-10-08T20:37:01.597Z,7.40
2022-10-08T20:39:29.538Z,7.40
2022-10-08T20:41:57.158Z,7.40
2022-10-08T20:44:24.175Z,7.40
2022-10-08T20:46:52.498Z,7.40
2022-10-08T20:49:20.031Z,7.30
2022-10-08T20:51:47.305Z,7.30
2022-10-08T20:54:16.383Z,7.40
2022-10-08T20:56:44.390Z,7.30
2022-10-08T20:59:17.213Z,7.30
2022-10-08T21:01:45.373Z,7.20
2022-10-08T21:04:12.892Z,7.20
2022-10-08T21:06:47.031Z,7.20
2022-10-08T21:09:16.143Z,7.20
2022-10-08T21:11:45.867Z,7.10
2022-10-08T21:14:19.281Z,7.10
2022-10-08T21:16:46.480Z,7.10
2022-10-08T21:19:22.166Z,7.00
2022-10-08T21:21:49.797Z,6.90
2022-10-08T21:24:17.202Z,6.70
2022-10-08T21:26:44.302Z,6.60
2022-10-08T21:29:14.380Z,6.50
2022-10-08T21:31:42.428Z,6.50
2022-10-08T21:34:12.339Z,6.40
2022-10-08T21:36:41.243Z,6.40
2022-10-08T21:39:13.750Z,6.30
2022-10-08T21:41:40.736Z,6.30
2022-10-08T21:44:09.219Z,6.30
2022-10-08T21:46:40.970Z,6.20
2022-10-08T21:49:14.639Z,6.20
2022-10-08T21:51:42.485Z,6.20
2022-10-08T21:54:11.337Z,6.20
2022-10-08T21:56:40.075Z,6.20
2022-10-08T21:59:09.175Z,6.20
2022-10-08T22:01:43.645Z,6.20
2022-10-08T22:04:23.168Z,6.10
2022-10-08T22:06:55.263Z,6.10
2022-10-08T22:09:30.053Z,6.20
2022-10-08T22:11:59.076Z,6.20
2022-10-08T22:14:27.234Z,6.20
2022-10-08T22:16:54.481Z,6.20
2022-10-08T22:19:21.812Z,6.20
2022-10-08T22:21:49.021Z,6.10
2022-10-08T22:24:16.344Z,6.10
2022-10-08T22:26:46.260Z,6.10
2022-10-08T22:29:14.611Z,6.10
2022-10-08T22:31:41.925Z,6.20
2022-10-08T22:34:11.934Z,6.20
2022-10-08T22:36:44.326Z,6.10
2022-10-08T22:39:11.905Z,6.10
2022-10-08T22:41:39.310Z,6.10
2022-10-08T22:44:06.842Z,6.10
2022-10-08T22:46:39.373Z,6.10
2022-10-08T22:49:10.507Z,6.20
2022-10-08T22:51:39.422Z,6.20
2022-10-08T22:54:07.422Z,6.20
2022-10-08T22:56:35.062Z,6.20
2022-10-08T22:59:02.338Z,6.20
2022-10-08T23:01:30.527Z,6.20
2022-10-08T23:03:58.374Z,6.10
2022-10-08T23:06:29.352Z,6.10
2022-10-08T23:08:59.645Z,6.00
2022-10-08T23:11:28.395Z,5.90
2022-10-08T23:13:58.141Z,5.80
2022-10-08T23:16:28.270Z,5.70
2022-10-08T23:19:08.197Z,5.70
2022-10-08T23:21:36.793Z,5.70
2022-10-08T23:24:04.975Z,5.70
2022-10-08T23:26:32.046Z,5.80
2022-10-08T23:29:00.740Z,5.70
2022-10-08T23:31:35.024Z,5.60
2022-10-08T23:34:03.521Z,5.50
2022-10-08T23:36:33.946Z,5.50
2022-10-08T23:39:01.755Z,5.40
2022-10-08T23:41:29.126Z,5.40
2022-10-08T23:43:58.006Z,5.40
2022-10-08T23:46:28.223Z,5.50
2022-10-08T23:48:56.288Z,5.50
2022-10-08T23:51:24.959Z,5.50
2022-10-08T23:53:52.972Z,5.50
2022-10-08T23:56:21.391Z,5.50
2022-10-08T23:58:49.931Z,5.50
